Warning: Javascript must be enabled to use all the features on this page!


Page Loading - Please Wait...

Click to hideNews Bulletins

Peak Streamflow for the Nation

USGS 01440000 Flat Brook near Flatbrookville NJ

Sussex County, New Jersey
Hydrologic Unit Code 02040104
Latitude  41°06'22", Longitude  74°57'09" NAD83
Drainage area 64.0  square miles
Gage datum 347.73 feet above NGVD29
Output formats
Table
Graph
Tab-separated file
peakfq (watstore) format
Reselect output format
Water
Year
Date Gage
Height
(feet)
Stream-
flow
(cfs)
1924 1924-04-07 7.10 3,040
1925 1925-02-11 7.10 3,040
1926 1926-02-26 3.50 575
1927 1926-11-17 3.93 755
1928 1927-12-08 5.86 2,000
1929 1929-04-13 3.93 787
1930 1930-06-10 3.68 595
1931 1931-03-29 3.68 605
1932 1932-04-01 4.15 916
1933 1933-08-24 5.17 1,500
1934 1934-03-05 6.401 7002
1935 1935-07-09 5.04 1,440
1936 1935-10-31 6.66 2,640
1937 1937-05-15 4.10 850
1938 1938-09-22 7.03 2,980
1939 1938-12-06 6.37 2,400
1940 1940-03-31 5.57 1,860
1941 1940-11-15 4.00 800
1942 1942-03-09 4.73 1,220
1943 1942-11-26 5.86 2,120
1944 1943-11-09 4.93 1,360
1945 1945-07-19 4.00 800
1946 1946-05-28 4.75 1,240
1947 1947-04-06 5.78 2,050
1948 1948-03-17 5.02 1,420
1949 1948-12-31 6.94 2,900
1950 1950-06-02 4.63 1,160
1951 1950-11-26 6.11 2,370
1952 1952-04-06 7.24 3,170
1953 1953-01-25 6.72 2,700
1954 1953-12-07 6.32 2,360
1955 1955-08-19 12.58 9,560
1956 1955-10-16 6.20 2,1202
1957 1957-04-06 4.97 1,370
1958 1957-12-21 5.86 2,000
1959 1959-04-03 4.14 844
1960 1960-09-13 7.05 2,720
1961 1961-02-26 5.372 1,560
1962 1962-03-13 4.47 1,040
1963 1963-03-27 4.71 1,180
1964 1964-01-26 4.66 1,150
1965 1965-02-08 4.31 960
1966 1966-02-13 4.71 1,180
1967 1967-03-30 3.94 757
1968 1968-05-30 6.36 2,230
1969 1969-08-05 4.26 933
1970 1970-04-03 7.04 2,710
1971 1971-02-28 4.02 791
1972 1972-06-23 5.14 1,420
1973 1973-02-03 5.57 1,690
1974 1973-12-21 8.56 4,060
1975 1975-02-25 5.75 1,820
1976 1976-01-28 6.04 2,030
1977 1977-03-14 6.45 2,310
1978 1978-01-09 6.52 2,360
1979 1979-01-25 6.20 2,140
1980 1979-10-06 4.53 1,080
1981 1981-02-03 6.35 2,240
1982 1982-02-04 5.60 1,730
1983 1983-04-16 9.52 5,110
1984 1984-04-05 6.60 2,390
1985 1985-09-28 4.47 1,040
1986 1986-03-15 5.82 1,840
1987 1987-04-05 5.42 1,590
1988 1987-11-30 4.39 997
1989 1989-09-20 6.02 1,980
1990 1989-10-21 7.03 2,700
1991 1990-12-04 6.27 2,150
1992 1992-06-06 4.36 981
1993 1993-04-01 6.04 1,990
1994 1994-08-22 4.542 1,080
1995 1995-03-09 4.73 1,200
1996 1996-01-28 7.04 2,710
1997 1996-10-20 5.76 1,810
1998 1998-05-11 4.45 1,040
1999 1999-09-17 8.26 3,760
2000 2000-04-22 4.35 987
2001 2000-12-18 6.30 2,170
2002 2002-06-07 3.84 724
2003 2003-06-22 5.95 1,930
2004 2004-09-18 8.17 3,670
2005 2005-04-03 7.25 2,880
2006 2005-10-09 7.37 2,970
2007 2007-04-16 9.27 4,810
2008 2008-03-05 6.75 2,490
2009 2008-12-12 6.79 2,520
2010 2010-03-14 6.81 2,120
2011 2011-08-28 12.94 10,200
2012 2011-12-08 5.22 1,480
2013 2013-01-31 5.34 1,550
2014 2014-05-01 6.10 2,050
2015 2015-07-01 4.47 1,050
2016 2016-02-25 6.72 2,480
2017 2017-04-07 4.33 977
2018 2018-01-12 5.14 1,450
2019 2019-01-25 5.56 1,700
?
  Peak Gage-Height Qualification Codes.
?
  Peak Streamflow Qualification Codes.